sensor_id;sensor_type;location;lat;lon;timestamp;temperature;humidity
10419;DHT22;5256;48.728;9.140;2022-10-13T00:00:50;9.70;99.90
10419;DHT22;5256;48.728;9.140;2022-10-13T00:03:16;9.90;99.90
10419;DHT22;5256;48.728;9.140;2022-10-13T00:05:45;9.90;99.90
10419;DHT22;5256;48.728;9.140;2022-10-13T00:08:12;10.10;99.90
10419;DHT22;5256;48.728;9.140;2022-10-13T00:10:39;10.20;99.90
10419;DHT22;5256;48.728;9.140;2022-10-13T00:13:06;10.30;99.90
10419;DHT22;5256;48.728;9.140;2022-10-13T00:15:31;10.40;99.90
10419;DHT22;5256;48.728;9.140;2022-10-13T00:17:57;10.50;99.90
10419;DHT22;5256;48.728;9.140;2022-10-13T00:20:22;10.60;99.90
10419;DHT22;5256;48.728;9.140;2022-10-13T00:22:48;10.60;99.90
10419;DHT22;5256;48.728;9.140;2022-10-13T00:25:14;10.70;99.90
10419;DHT22;5256;48.728;9.140;2022-10-13T00:27:39;10.80;99.90
10419;DHT22;5256;48.728;9.140;2022-10-13T00:30:05;10.80;99.90
10419;DHT22;5256;48.728;9.140;2022-10-13T00:32:31;10.80;99.90
10419;DHT22;5256;48.728;9.140;2022-10-13T00:34:56;10.80;99.90
10419;DHT22;5256;48.728;9.140;2022-10-13T00:37:23;10.80;99.90
10419;DHT22;5256;48.728;9.140;2022-10-13T00:39:48;10.80;99.90
10419;DHT22;5256;48.728;9.140;2022-10-13T00:42:14;10.80;99.90
10419;DHT22;5256;48.728;9.140;2022-10-13T00:45:13;10.70;99.90
10419;DHT22;5256;48.728;9.140;2022-10-13T00:47:46;10.60;99.90
10419;DHT22;5256;48.728;9.140;2022-10-13T00:50:16;10.60;99.90
10419;DHT22;5256;48.728;9.140;2022-10-13T00:52:44;10.50;99.90
10419;DHT22;5256;48.728;9.140;2022-10-13T00:55:12;10.50;99.90
10419;DHT22;5256;48.728;9.140;2022-10-13T00:57:45;10.50;99.90
10419;DHT22;5256;48.728;9.140;2022-10-13T01:00:13;10.40;99.90
10419;DHT22;5256;48.728;9.140;2022-10-13T01:02:39;10.40;99.90
10419;DHT22;5256;48.728;9.140;2022-10-13T01:05:06;10.30;99.90
10419;DHT22;5256;48.728;9.140;2022-10-13T01:07:33;10.30;99.90
10419;DHT22;5256;48.728;9.140;2022-10-13T01:09:58;10.30;99.90
10419;DHT22;5256;48.728;9.140;2022-10-13T01:12:51;10.20;99.90
10419;DHT22;5256;48.728;9.140;2022-10-13T01:15:32;10.00;99.90
10419;DHT22;5256;48.728;9.140;2022-10-13T01:18:13;9.90;99.90
10419;DHT22;5256;48.728;9.140;2022-10-13T01:35:28;9.50;99.90
10419;DHT22;5256;48.728;9.140;2022-10-13T01:41:26;9.40;99.90
10419;DHT22;5256;48.728;9.140;2022-10-13T01:44:20;9.50;99.90
10419;DHT22;5256;48.728;9.140;2022-10-13T01:46:47;9.60;99.90
10419;DHT22;5256;48.728;9.140;2022-10-13T01:49:15;9.70;99.90
10419;DHT22;5256;48.728;9.140;2022-10-13T01:51:43;9.80;99.90
10419;DHT22;5256;48.728;9.140;2022-10-13T01:54:09;9.90;99.90
10419;DHT22;5256;48.728;9.140;2022-10-13T01:56:35;9.90;99.90
10419;DHT22;5256;48.728;9.140;2022-10-13T01:59:07;10.00;99.90
10419;DHT22;5256;48.728;9.140;2022-10-13T02:02:10;10.10;99.90
10419;DHT22;5256;48.728;9.140;2022-10-13T02:07:56;10.30;99.90
10419;DHT22;5256;48.728;9.140;2022-10-13T02:13:05;10.20;99.90
10419;DHT22;5256;48.728;9.140;2022-10-13T02:15:36;10.20;99.90
10419;DHT22;5256;48.728;9.140;2022-10-13T02:18:03;10.10;99.90
10419;DHT22;5256;48.728;9.140;2022-10-13T02:20:29;10.20;99.90
10419;DHT22;5256;48.728;9.140;2022-10-13T02:23:01;10.20;99.90
10419;DHT22;5256;48.728;9.140;2022-10-13T02:25:28;10.20;99.90
10419;DHT22;5256;48.728;9.140;2022-10-13T02:27:57;10.20;99.90
10419;DHT22;5256;48.728;9.140;2022-10-13T02:30:25;10.20;99.90
10419;DHT22;5256;48.728;9.140;2022-10-13T02:32:51;10.30;99.90
10419;DHT22;5256;48.728;9.140;2022-10-13T02:35:17;10.40;99.90
10419;DHT22;5256;48.728;9.140;2022-10-13T02:37:43;10.60;99.90
10419;DHT22;5256;48.728;9.140;2022-10-13T02:40:09;10.60;99.90
10419;DHT22;5256;48.728;9.140;2022-10-13T02:42:35;10.60;99.90
10419;DHT22;5256;48.728;9.140;2022-10-13T02:45:00;10.50;99.90
10419;DHT22;5256;48.728;9.140;2022-10-13T02:47:26;10.60;99.90
10419;DHT22;5256;48.728;9.140;2022-10-13T02:49:51;10.50;99.90
10419;DHT22;5256;48.728;9.140;2022-10-13T02:52:17;10.50;99.90
10419;DHT22;5256;48.728;9.140;2022-10-13T02:54:45;10.50;99.90
10419;DHT22;5256;48.728;9.140;2022-10-13T02:57:11;10.60;99.90
10419;DHT22;5256;48.728;9.140;2022-10-13T02:59:36;10.50;99.90
10419;DHT22;5256;48.728;9.140;2022-10-13T03:02:02;10.60;99.90
10419;DHT22;5256;48.728;9.140;2022-10-13T03:04:28;10.50;99.90
10419;DHT22;5256;48.728;9.140;2022-10-13T03:06:53;10.60;99.90
10419;DHT22;5256;48.728;9.140;2022-10-13T03:09:19;10.60;99.90
10419;DHT22;5256;48.728;9.140;2022-10-13T03:11:44;10.60;99.90
10419;DHT22;5256;48.728;9.140;2022-10-13T03:14:10;10.60;99.90
10419;DHT22;5256;48.728;9.140;2022-10-13T03:16:35;10.60;99.90
10419;DHT22;5256;48.728;9.140;2022-10-13T03:19:01;10.60;99.90
10419;DHT22;5256;48.728;9.140;2022-10-13T03:21:26;10.60;99.90
10419;DHT22;5256;48.728;9.140;2022-10-13T03:23:52;10.50;99.90
10419;DHT22;5256;48.728;9.140;2022-10-13T03:26:18;10.50;99.90
10419;DHT22;5256;48.728;9.140;2022-10-13T03:28:48;10.60;99.90
10419;DHT22;5256;48.728;9.140;2022-10-13T03:31:13;10.60;99.90
10419;DHT22;5256;48.728;9.140;2022-10-13T03:33:39;10.60;99.90
10419;DHT22;5256;48.728;9.140;2022-10-13T03:36:05;10.50;99.90
10419;DHT22;5256;48.728;9.140;2022-10-13T03:38:32;10.50;99.90
10419;DHT22;5256;48.728;9.140;2022-10-13T03:41:04;10.50;99.90
10419;DHT22;5256;48.728;9.140;2022-10-13T03:43:30;10.50;99.90
10419;DHT22;5256;48.728;9.140;2022-10-13T03:46:00;10.50;99.90
10419;DHT22;5256;48.728;9.140;2022-10-13T03:48:27;10.60;99.90
10419;DHT22;5256;48.728;9.140;2022-10-13T03:50:52;10.60;99.90
10419;DHT22;5256;48.728;9.140;2022-10-13T03:53:18;10.60;99.90
10419;DHT22;5256;48.728;9.140;2022-10-13T03:55:52;10.60;99.90
10419;DHT22;5256;48.728;9.140;2022-10-13T03:58:18;10.60;99.90
10419;DHT22;5256;48.728;9.140;2022-10-13T04:00:44;10.60;99.90
10419;DHT22;5256;48.728;9.140;2022-10-13T04:03:10;10.60;99.90
10419;DHT22;5256;48.728;9.140;2022-10-13T04:05:35;10.70;99.90
10419;DHT22;5256;48.728;9.140;2022-10-13T04:08:01;10.80;99.90
10419;DHT22;5256;48.728;9.140;2022-10-13T04:10:27;10.80;99.90
10419;DHT22;5256;48.728;9.140;2022-10-13T04:12:52;10.70;99.90
10419;DHT22;5256;48.728;9.140;2022-10-13T04:15:18;10.70;99.90
10419;DHT22;5256;48.728;9.140;2022-10-13T04:17:44;10.60;99.90
10419;DHT22;5256;48.728;9.140;2022-10-13T04:20:09;10.60;99.90
10419;DHT22;5256;48.728;9.140;2022-10-13T04:22:35;10.60;99.90
10419;DHT22;5256;48.728;9.140;2022-10-13T04:25:00;10.60;99.90
10419;DHT22;5256;48.728;9.140;2022-10-13T04:27:26;10.60;99.90
10419;DHT22;5256;48.728;9.140;2022-10-13T04:29:52;10.50;99.90
10419;DHT22;5256;48.728;9.140;2022-10-13T04:32:18;10.60;99.90
10419;DHT22;5256;48.728;9.140;2022-10-13T04:34:43;10.50;99.90
10419;DHT22;5256;48.728;9.140;2022-10-13T04:37:09;10.50;99.90
10419;DHT22;5256;48.728;9.140;2022-10-13T04:39:35;10.50;99.90
10419;DHT22;5256;48.728;9.140;2022-10-13T04:42:00;10.50;99.90
10419;DHT22;5256;48.728;9.140;2022-10-13T04:44:26;10.50;99.90
10419;DHT22;5256;48.728;9.140;2022-10-13T04:46:51;10.60;99.90
10419;DHT22;5256;48.728;9.140;2022-10-13T04:49:17;10.60;99.90
10419;DHT22;5256;48.728;9.140;2022-10-13T04:51:42;10.70;99.90
10419;DHT22;5256;48.728;9.140;2022-10-13T04:54:08;10.70;99.90
10419;DHT22;5256;48.728;9.140;2022-10-13T04:56:34;10.80;99.90
10419;DHT22;5256;48.728;9.140;2022-10-13T04:59:00;10.90;99.90
10419;DHT22;5256;48.728;9.140;2022-10-13T05:01:26;10.80;99.90
10419;DHT22;5256;48.728;9.140;2022-10-13T05:03:57;10.80;99.90
10419;DHT22;5256;48.728;9.140;2022-10-13T05:06:25;10.70;99.90
10419;DHT22;5256;48.728;9.140;2022-10-13T05:08:51;10.60;99.90
10419;DHT22;5256;48.728;9.140;2022-10-13T05:11:17;10.50;99.90
10419;DHT22;5256;48.728;9.140;2022-10-13T05:13:45;10.40;99.90
10419;DHT22;5256;48.728;9.140;2022-10-13T05:16:13;10.50;99.90
10419;DHT22;5256;48.728;9.140;2022-10-13T05:18:39;10.50;99.90
10419;DHT22;5256;48.728;9.140;2022-10-13T05:21:10;10.30;99.90
10419;DHT22;5256;48.728;9.140;2022-10-13T05:23:37;10.40;99.90
10419;DHT22;5256;48.728;9.140;2022-10-13T05:26:08;10.40;99.90
10419;DHT22;5256;48.728;9.140;2022-10-13T05:28:34;10.50;99.90
10419;DHT22;5256;48.728;9.140;2022-10-13T05:31:13;10.50;99.90
10419;DHT22;5256;48.728;9.140;2022-10-13T05:33:39;10.40;99.90
10419;DHT22;5256;48.728;9.140;2022-10-13T05:36:14;10.40;99.90
10419;DHT22;5256;48.728;9.140;2022-10-13T05:38:40;10.60;99.90
10419;DHT22;5256;48.728;9.140;2022-10-13T05:41:09;10.60;99.90
10419;DHT22;5256;48.728;9.140;2022-10-13T05:43:36;10.60;99.90
10419;DHT22;5256;48.728;9.140;2022-10-13T05:46:03;10.60;99.90
10419;DHT22;5256;48.728;9.140;2022-10-13T05:48:29;10.60;99.90
10419;DHT22;5256;48.728;9.140;2022-10-13T05:50:57;10.60;99.90
10419;DHT22;5256;48.728;9.140;2022-10-13T05:53:24;10.60;99.90
10419;DHT22;5256;48.728;9.140;2022-10-13T05:55:51;10.70;99.90
10419;DHT22;5256;48.728;9.140;2022-10-13T05:58:17;10.60;99.90
10419;DHT22;5256;48.728;9.140;2022-10-13T06:00:43;10.60;99.90
10419;DHT22;5256;48.728;9.140;2022-10-13T06:03:13;10.50;99.90
10419;DHT22;5256;48.728;9.140;2022-10-13T06:05:40;10.40;99.90
10419;DHT22;5256;48.728;9.140;2022-10-13T06:08:08;10.30;99.90
10419;DHT22;5256;48.728;9.140;2022-10-13T06:10:35;10.30;99.90
10419;DHT22;5256;48.728;9.140;2022-10-13T06:13:01;10.30;99.90
10419;DHT22;5256;48.728;9.140;2022-10-13T06:15:27;10.30;99.90
10419;DHT22;5256;48.728;9.140;2022-10-13T06:17:52;10.30;99.90
10419;DHT22;5256;48.728;9.140;2022-10-13T06:20:18;10.30;99.90
10419;DHT22;5256;48.728;9.140;2022-10-13T06:22:44;10.30;99.90
10419;DHT22;5256;48.728;9.140;2022-10-13T06:25:10;10.30;99.90
10419;DHT22;5256;48.728;9.140;2022-10-13T06:27:36;10.50;99.90
10419;DHT22;5256;48.728;9.140;2022-10-13T06:30:02;10.50;99.90
10419;DHT22;5256;48.728;9.140;2022-10-13T06:32:28;10.60;99.90
10419;DHT22;5256;48.728;9.140;2022-10-13T06:34:53;10.60;99.90
10419;DHT22;5256;48.728;9.140;2022-10-13T06:37:19;10.60;99.90
10419;DHT22;5256;48.728;9.140;2022-10-13T06:39:44;10.60;99.90
10419;DHT22;5256;48.728;9.140;2022-10-13T06:42:11;10.70;99.90
10419;DHT22;5256;48.728;9.140;2022-10-13T06:44:36;10.60;99.90
10419;DHT22;5256;48.728;9.140;2022-10-13T06:47:03;10.70;99.90
10419;DHT22;5256;48.728;9.140;2022-10-13T06:49:28;10.70;99.90
10419;DHT22;5256;48.728;9.140;2022-10-13T06:51:54;10.80;99.90
10419;DHT22;5256;48.728;9.140;2022-10-13T06:54:20;10.80;99.90
10419;DHT22;5256;48.728;9.140;2022-10-13T06:56:45;10.80;99.90
10419;DHT22;5256;48.728;9.140;2022-10-13T06:59:11;10.80;99.90
10419;DHT22;5256;48.728;9.140;2022-10-13T07:01:37;10.90;99.90
10419;DHT22;5256;48.728;9.140;2022-10-13T07:04:02;10.90;99.90
10419;DHT22;5256;48.728;9.140;2022-10-13T07:06:28;11.00;99.90
10419;DHT22;5256;48.728;9.140;2022-10-13T07:08:53;11.10;99.90
10419;DHT22;5256;48.728;9.140;2022-10-13T07:11:19;11.10;99.90
10419;DHT22;5256;48.728;9.140;2022-10-13T07:13:45;11.10;99.90
10419;DHT22;5256;48.728;9.140;2022-10-13T07:16:10;11.20;99.90
10419;DHT22;5256;48.728;9.140;2022-10-13T07:18:36;11.20;99.90
10419;DHT22;5256;48.728;9.140;2022-10-13T07:21:02;11.30;99.90
10419;DHT22;5256;48.728;9.140;2022-10-13T07:23:28;11.40;99.90
10419;DHT22;5256;48.728;9.140;2022-10-13T07:25:54;11.50;99.90
10419;DHT22;5256;48.728;9.140;2022-10-13T07:28:25;11.60;99.90
10419;DHT22;5256;48.728;9.140;2022-10-13T07:30:51;11.60;99.90
10419;DHT22;5256;48.728;9.140;2022-10-13T07:33:18;11.70;99.90
10419;DHT22;5256;48.728;9.140;2022-10-13T07:35:44;11.80;99.90
10419;DHT22;5256;48.728;9.140;2022-10-13T07:38:10;11.80;99.90
10419;DHT22;5256;48.728;9.140;2022-10-13T07:40:37;11.80;99.90
10419;DHT22;5256;48.728;9.140;2022-10-13T07:43:05;11.90;99.90
10419;DHT22;5256;48.728;9.140;2022-10-13T07:45:31;12.00;99.90
10419;DHT22;5256;48.728;9.140;2022-10-13T07:47:56;12.10;99.90
10419;DHT22;5256;48.728;9.140;2022-10-13T07:50:22;12.10;99.90
10419;DHT22;5256;48.728;9.140;2022-10-13T07:52:48;12.20;99.90
10419;DHT22;5256;48.728;9.140;2022-10-13T07:55:13;12.30;99.90
10419;DHT22;5256;48.728;9.140;2022-10-13T07:57:39;12.50;99.90
10419;DHT22;5256;48.728;9.140;2022-10-13T08:00:05;12.90;99.90
10419;DHT22;5256;48.728;9.140;2022-10-13T08:02:31;13.00;99.90
10419;DHT22;5256;48.728;9.140;2022-10-13T08:04:57;13.00;99.90
10419;DHT22;5256;48.728;9.140;2022-10-13T08:07:22;13.00;99.90
10419;DHT22;5256;48.728;9.140;2022-10-13T08:09:48;13.30;99.90
10419;DHT22;5256;48.728;9.140;2022-10-13T08:12:14;13.30;99.90
10419;DHT22;5256;48.728;9.140;2022-10-13T08:14:39;13.40;99.90
10419;DHT22;5256;48.728;9.140;2022-10-13T08:17:06;13.60;99.90
10419;DHT22;5256;48.728;9.140;2022-10-13T08:19:31;13.70;99.90
10419;DHT22;5256;48.728;9.140;2022-10-13T08:21:57;13.80;99.90
10419;DHT22;5256;48.728;9.140;2022-10-13T08:24:23;13.70;99.90
10419;DHT22;5256;48.728;9.140;2022-10-13T08:26:48;13.70;99.90
10419;DHT22;5256;48.728;9.140;2022-10-13T08:29:15;13.60;99.90
10419;DHT22;5256;48.728;9.140;2022-10-13T08:31:43;13.50;99.90
10419;DHT22;5256;48.728;9.140;2022-10-13T08:34:12;13.60;99.90
10419;DHT22;5256;48.728;9.140;2022-10-13T08:36:38;13.80;99.90
10419;DHT22;5256;48.728;9.140;2022-10-13T08:39:05;13.80;99.90
10419;DHT22;5256;48.728;9.140;2022-10-13T08:41:35;13.90;99.90
10419;DHT22;5256;48.728;9.140;2022-10-13T08:44:24;13.90;99.90
10419;DHT22;5256;48.728;9.140;2022-10-13T08:49:22;14.20;99.90
10419;DHT22;5256;48.728;9.140;2022-10-13T08:51:48;14.40;99.90
10419;DHT22;5256;48.728;9.140;2022-10-13T08:54:15;14.40;99.90
10419;DHT22;5256;48.728;9.140;2022-10-13T08:56:42;14.40;99.90
10419;DHT22;5256;48.728;9.140;2022-10-13T08:59:13;14.50;99.90
10419;DHT22;5256;48.728;9.140;2022-10-13T09:01:40;14.50;99.90
10419;DHT22;5256;48.728;9.140;2022-10-13T09:09:23;14.60;99.90
10419;DHT22;5256;48.728;9.140;2022-10-13T09:11:50;14.70;99.90
10419;DHT22;5256;48.728;9.140;2022-10-13T09:14:28;14.90;99.90
10419;DHT22;5256;48.728;9.140;2022-10-13T09:16:58;14.90;99.90
10419;DHT22;5256;48.728;9.140;2022-10-13T09:19:36;15.10;99.90
10419;DHT22;5256;48.728;9.140;2022-10-13T09:22:28;15.20;99.90
10419;DHT22;5256;48.728;9.140;2022-10-13T09:32:54;15.40;99.90
10419;DHT22;5256;48.728;9.140;2022-10-13T09:35:23;15.30;99.90
10419;DHT22;5256;48.728;9.140;2022-10-13T09:38:21;15.40;99.90
10419;DHT22;5256;48.728;9.140;2022-10-13T09:46:22;15.60;99.90
10419;DHT22;5256;48.728;9.140;2022-10-13T09:48:50;15.60;99.90
10419;DHT22;5256;48.728;9.140;2022-10-13T09:51:37;15.50;99.90
10419;DHT22;5256;48.728;9.140;2022-10-13T09:54:04;15.70;99.90
10419;DHT22;5256;48.728;9.140;2022-10-13T09:57:19;15.70;99.90
10419;DHT22;5256;48.728;9.140;2022-10-13T09:59:35;15.60;99.90
10419;DHT22;5256;48.728;9.140;2022-10-13T10:02:14;15.60;99.90
10419;DHT22;5256;48.728;9.140;2022-10-13T10:04:42;15.70;99.90
10419;DHT22;5256;48.728;9.140;2022-10-13T10:07:18;15.90;99.90
10419;DHT22;5256;48.728;9.140;2022-10-13T10:09:52;16.00;99.90
10419;DHT22;5256;48.728;9.140;2022-10-13T10:12:21;16.10;99.90
10419;DHT22;5256;48.728;9.140;2022-10-13T10:14:47;16.10;99.90
10419;DHT22;5256;48.728;9.140;2022-10-13T10:25:41;16.20;99.90
10419;DHT22;5256;48.728;9.140;2022-10-13T10:28:32;16.10;99.90
10419;DHT22;5256;48.728;9.140;2022-10-13T10:34:17;15.70;99.90
10419;DHT22;5256;48.728;9.140;2022-10-13T10:36:56;15.60;99.90
10419;DHT22;5256;48.728;9.140;2022-10-13T10:39:35;15.40;99.90
10419;DHT22;5256;48.728;9.140;2022-10-13T10:44:40;15.30;99.90
10419;DHT22;5256;48.728;9.140;2022-10-13T10:47:59;15.30;99.90
10419;DHT22;5256;48.728;9.140;2022-10-13T10:50:05;15.20;99.90
10419;DHT22;5256;48.728;9.140;2022-10-13T10:53:14;15.30;99.90
10419;DHT22;5256;48.728;9.140;2022-10-13T10:55:51;15.30;99.90
10419;DHT22;5256;48.728;9.140;2022-10-13T10:58:45;15.50;99.90
10419;DHT22;5256;48.728;9.140;2022-10-13T11:03:53;15.90;99.90
10419;DHT22;5256;48.728;9.140;2022-10-13T11:06:24;15.90;99.90
10419;DHT22;5256;48.728;9.140;2022-10-13T11:08:56;16.00;99.90
10419;DHT22;5256;48.728;9.140;2022-10-13T11:13:59;16.60;99.90
10419;DHT22;5256;48.728;9.140;2022-10-13T11:30:00;17.00;99.90
10419;DHT22;5256;48.728;9.140;2022-10-13T11:40:39;16.90;99.90
10419;DHT22;5256;48.728;9.140;2022-10-13T11:43:32;17.00;99.90
10419;DHT22;5256;48.728;9.140;2022-10-13T11:52:01;17.20;99.90
10419;DHT22;5256;48.728;9.140;2022-10-13T11:55:02;17.30;99.90
10419;DHT22;5256;48.728;9.140;2022-10-13T11:57:30;17.50;99.90
10419;DHT22;5256;48.728;9.140;2022-10-13T11:59:57;17.60;99.90
10419;DHT22;5256;48.728;9.140;2022-10-13T12:02:24;17.50;99.90
10419;DHT22;5256;48.728;9.140;2022-10-13T12:07:36;17.50;99.90
10419;DHT22;5256;48.728;9.140;2022-10-13T12:10:06;17.40;99.90
10419;DHT22;5256;48.728;9.140;2022-10-13T12:12:33;17.50;99.90
10419;DHT22;5256;48.728;9.140;2022-10-13T12:14:58;17.60;99.90
10419;DHT22;5256;48.728;9.140;2022-10-13T12:17:34;17.60;99.90
10419;DHT22;5256;48.728;9.140;2022-10-13T12:20:16;17.60;99.90
10419;DHT22;5256;48.728;9.140;2022-10-13T12:22:50;17.70;99.90
10419;DHT22;5256;48.728;9.140;2022-10-13T12:25:18;17.80;99.90
10419;DHT22;5256;48.728;9.140;2022-10-13T12:27:56;17.90;99.90
10419;DHT22;5256;48.728;9.140;2022-10-13T12:30:33;18.00;99.90
10419;DHT22;5256;48.728;9.140;2022-10-13T12:33:13;18.00;99.90
10419;DHT22;5256;48.728;9.140;2022-10-13T12:35:42;18.00;99.90
10419;DHT22;5256;48.728;9.140;2022-10-13T12:38:17;17.70;99.90
10419;DHT22;5256;48.728;9.140;2022-10-13T12:40:50;17.70;99.90
10419;DHT22;5256;48.728;9.140;2022-10-13T12:43:21;17.60;99.90
10419;DHT22;5256;48.728;9.140;2022-10-13T12:45:49;17.60;99.90
10419;DHT22;5256;48.728;9.140;2022-10-13T12:48:29;17.50;99.90
10419;DHT22;5256;48.728;9.140;2022-10-13T12:51:11;17.60;99.90
10419;DHT22;5256;48.728;9.140;2022-10-13T12:53:39;17.90;99.90
10419;DHT22;5256;48.728;9.140;2022-10-13T12:56:05;17.90;99.90
10419;DHT22;5256;48.728;9.140;2022-10-13T12:58:33;17.90;99.90
10419;DHT22;5256;48.728;9.140;2022-10-13T13:01:19;17.90;99.90
10419;DHT22;5256;48.728;9.140;2022-10-13T13:03:53;18.00;99.90
10419;DHT22;5256;48.728;9.140;2022-10-13T13:06:33;17.90;99.90
10419;DHT22;5256;48.728;9.140;2022-10-13T13:11:41;18.00;99.90
10419;DHT22;5256;48.728;9.140;2022-10-13T13:14:33;18.00;99.90
10419;DHT22;5256;48.728;9.140;2022-10-13T13:19:42;18.00;99.90
10419;DHT22;5256;48.728;9.140;2022-10-13T13:22:09;17.90;99.90
10419;DHT22;5256;48.728;9.140;2022-10-13T13:24:35;17.90;99.90
10419;DHT22;5256;48.728;9.140;2022-10-13T13:27:31;17.80;99.90
10419;DHT22;5256;48.728;9.140;2022-10-13T13:29:58;17.70;99.90
10419;DHT22;5256;48.728;9.140;2022-10-13T13:32:26;17.90;99.90
10419;DHT22;5256;48.728;9.140;2022-10-13T13:34:52;18.00;99.90
10419;DHT22;5256;48.728;9.140;2022-10-13T13:37:30;18.10;99.90
10419;DHT22;5256;48.728;9.140;2022-10-13T13:39:57;18.00;99.90
10419;DHT22;5256;48.728;9.140;2022-10-13T13:42:23;17.90;99.90
10419;DHT22;5256;48.728;9.140;2022-10-13T13:44:48;17.90;99.90
10419;DHT22;5256;48.728;9.140;2022-10-13T13:49:44;18.10;99.90
10419;DHT22;5256;48.728;9.140;2022-10-13T13:52:10;18.00;99.90
10419;DHT22;5256;48.728;9.140;2022-10-13T13:54:35;17.90;99.90
10419;DHT22;5256;48.728;9.140;2022-10-13T13:57:01;17.70;99.90
10419;DHT22;5256;48.728;9.140;2022-10-13T13:59:27;17.50;99.90
10419;DHT22;5256;48.728;9.140;2022-10-13T14:01:52;17.30;99.90
10419;DHT22;5256;48.728;9.140;2022-10-13T14:04:18;17.20;99.90
10419;DHT22;5256;48.728;9.140;2022-10-13T14:06:43;17.20;99.90
10419;DHT22;5256;48.728;9.140;2022-10-13T14:09:09;17.20;99.90
10419;DHT22;5256;48.728;9.140;2022-10-13T14:11:34;17.20;99.90
10419;DHT22;5256;48.728;9.140;2022-10-13T14:14:00;17.30;99.90
10419;DHT22;5256;48.728;9.140;2022-10-13T14:16:27;17.30;99.90
10419;DHT22;5256;48.728;9.140;2022-10-13T14:18:54;17.40;99.90
10419;DHT22;5256;48.728;9.140;2022-10-13T14:21:20;17.30;99.90
10419;DHT22;5256;48.728;9.140;2022-10-13T14:23:46;17.20;99.90
10419;DHT22;5256;48.728;9.140;2022-10-13T14:26:12;17.30;99.90
10419;DHT22;5256;48.728;9.140;2022-10-13T14:28:43;17.30;99.90
10419;DHT22;5256;48.728;9.140;2022-10-13T14:31:09;17.20;99.90
10419;DHT22;5256;48.728;9.140;2022-10-13T14:33:35;17.30;99.90
10419;DHT22;5256;48.728;9.140;2022-10-13T14:36:02;17.20;99.90
10419;DHT22;5256;48.728;9.140;2022-10-13T14:38:28;17.20;99.90
10419;DHT22;5256;48.728;9.140;2022-10-13T14:41:06;17.10;99.90
10419;DHT22;5256;48.728;9.140;2022-10-13T14:43:32;17.10;99.90
10419;DHT22;5256;48.728;9.140;2022-10-13T14:46:07;17.10;99.90
10419;DHT22;5256;48.728;9.140;2022-10-13T14:48:34;17.00;99.90
10419;DHT22;5256;48.728;9.140;2022-10-13T14:51:07;17.00;99.90
10419;DHT22;5256;48.728;9.140;2022-10-13T14:53:37;17.00;99.90
10419;DHT22;5256;48.728;9.140;2022-10-13T14:58:38;17.00;99.90
10419;DHT22;5256;48.728;9.140;2022-10-13T15:01:04;16.90;99.90
10419;DHT22;5256;48.728;9.140;2022-10-13T15:03:29;16.80;99.90
10419;DHT22;5256;48.728;9.140;2022-10-13T15:05:55;16.70;99.90
10419;DHT22;5256;48.728;9.140;2022-10-13T15:08:20;16.60;99.90
10419;DHT22;5256;48.728;9.140;2022-10-13T15:10:46;16.40;99.90
10419;DHT22;5256;48.728;9.140;2022-10-13T15:13:11;16.40;99.90
10419;DHT22;5256;48.728;9.140;2022-10-13T15:15:45;16.30;99.90
10419;DHT22;5256;48.728;9.140;2022-10-13T15:18:10;16.20;99.90
10419;DHT22;5256;48.728;9.140;2022-10-13T15:20:36;16.10;99.90
10419;DHT22;5256;48.728;9.140;2022-10-13T15:23:01;16.00;99.90
10419;DHT22;5256;48.728;9.140;2022-10-13T15:25:27;16.00;99.90
10419;DHT22;5256;48.728;9.140;2022-10-13T15:27:52;15.80;99.90
10419;DHT22;5256;48.728;9.140;2022-10-13T15:30:18;15.90;99.90
10419;DHT22;5256;48.728;9.140;2022-10-13T15:32:43;15.90;99.90
10419;DHT22;5256;48.728;9.140;2022-10-13T15:35:09;15.90;99.90
10419;DHT22;5256;48.728;9.140;2022-10-13T15:37:35;15.90;99.90
10419;DHT22;5256;48.728;9.140;2022-10-13T15:40:00;15.70;99.90
10419;DHT22;5256;48.728;9.140;2022-10-13T15:42:26;15.60;99.90
10419;DHT22;5256;48.728;9.140;2022-10-13T15:44:51;15.60;99.90
10419;DHT22;5256;48.728;9.140;2022-10-13T15:47:17;15.50;99.90
10419;DHT22;5256;48.728;9.140;2022-10-13T15:49:42;15.50;99.90
10419;DHT22;5256;48.728;9.140;2022-10-13T15:52:08;15.40;99.90
10419;DHT22;5256;48.728;9.140;2022-10-13T15:54:33;15.40;99.90
10419;DHT22;5256;48.728;9.140;2022-10-13T15:57:00;15.20;99.90
10419;DHT22;5256;48.728;9.140;2022-10-13T15:59:25;15.10;99.90
10419;DHT22;5256;48.728;9.140;2022-10-13T16:01:51;15.00;99.90
10419;DHT22;5256;48.728;9.140;2022-10-13T16:04:16;15.00;99.90
10419;DHT22;5256;48.728;9.140;2022-10-13T16:06:42;14.80;99.90
10419;DHT22;5256;48.728;9.140;2022-10-13T16:09:08;14.70;99.90
10419;DHT22;5256;48.728;9.140;2022-10-13T16:11:33;14.50;99.90
10419;DHT22;5256;48.728;9.140;2022-10-13T16:13:59;14.50;99.90
10419;DHT22;5256;48.728;9.140;2022-10-13T16:16:25;14.50;99.90
10419;DHT22;5256;48.728;9.140;2022-10-13T16:18:52;14.40;99.90
10419;DHT22;5256;48.728;9.140;2022-10-13T16:21:21;14.30;99.90
10419;DHT22;5256;48.728;9.140;2022-10-13T16:23:48;14.20;99.90
10419;DHT22;5256;48.728;9.140;2022-10-13T16:26:14;14.10;99.90
10419;DHT22;5256;48.728;9.140;2022-10-13T16:28:41;14.00;99.90
10419;DHT22;5256;48.728;9.140;2022-10-13T16:31:09;13.90;99.90
10419;DHT22;5256;48.728;9.140;2022-10-13T16:33:39;13.90;99.90
10419;DHT22;5256;48.728;9.140;2022-10-13T16:36:11;13.90;99.90
10419;DHT22;5256;48.728;9.140;2022-10-13T16:38:37;13.80;99.90
10419;DHT22;5256;48.728;9.140;2022-10-13T16:41:04;13.80;99.90
10419;DHT22;5256;48.728;9.140;2022-10-13T16:43:30;13.80;99.90
10419;DHT22;5256;48.728;9.140;2022-10-13T16:45:57;13.70;99.90
10419;DHT22;5256;48.728;9.140;2022-10-13T16:48:23;13.60;99.90
10419;DHT22;5256;48.728;9.140;2022-10-13T16:50:49;13.60;99.90
10419;DHT22;5256;48.728;9.140;2022-10-13T16:53:14;13.50;99.90
10419;DHT22;5256;48.728;9.140;2022-10-13T16:55:40;13.40;99.90
10419;DHT22;5256;48.728;9.140;2022-10-13T16:58:05;13.40;99.90
10419;DHT22;5256;48.728;9.140;2022-10-13T17:00:31;13.30;99.90
10419;DHT22;5256;48.728;9.140;2022-10-13T17:02:57;13.20;99.90
10419;DHT22;5256;48.728;9.140;2022-10-13T17:05:22;13.20;99.90
10419;DHT22;5256;48.728;9.140;2022-10-13T17:07:48;13.20;99.90
10419;DHT22;5256;48.728;9.140;2022-10-13T17:10:14;13.10;99.90
10419;DHT22;5256;48.728;9.140;2022-10-13T17:12:39;13.10;99.90
10419;DHT22;5256;48.728;9.140;2022-10-13T17:15:05;13.10;99.90
10419;DHT22;5256;48.728;9.140;2022-10-13T17:17:31;13.10;99.90
10419;DHT22;5256;48.728;9.140;2022-10-13T17:19:56;13.00;99.90
10419;DHT22;5256;48.728;9.140;2022-10-13T17:22:22;13.10;99.90
10419;DHT22;5256;48.728;9.140;2022-10-13T17:24:47;13.00;99.90
10419;DHT22;5256;48.728;9.140;2022-10-13T17:27:16;13.00;99.90
10419;DHT22;5256;48.728;9.140;2022-10-13T17:29:42;13.00;99.90
10419;DHT22;5256;48.728;9.140;2022-10-13T17:32:08;12.90;99.90
10419;DHT22;5256;48.728;9.140;2022-10-13T17:34:34;12.90;99.90
10419;DHT22;5256;48.728;9.140;2022-10-13T17:37:01;13.00;99.90
10419;DHT22;5256;48.728;9.140;2022-10-13T17:39:27;13.10;99.90
10419;DHT22;5256;48.728;9.140;2022-10-13T17:41:52;13.10;99.90